createdAt,value
2023-07-01T00:00:00.574Z,18.93
2023-07-01T00:02:29.997Z,19.10
2023-07-01T00:05:00.427Z,18.10
2023-07-01T00:07:29.041Z,20.50
2023-07-01T00:09:57.054Z,24.97
2023-07-01T00:12:25.074Z,26.23
2023-07-01T00:14:53.048Z,21.40
2023-07-01T00:17:21.130Z,27.37
2023-07-01T00:19:50.600Z,26.37
2023-07-01T00:22:18.743Z,23.73
2023-07-01T00:24:46.742Z,25.03
2023-07-01T00:27:14.782Z,24.30
2023-07-01T00:29:44.636Z,20.30
2023-07-01T00:32:13.686Z,21.43
2023-07-01T00:34:41.942Z,20.37
2023-07-01T00:37:11.372Z,23.33
2023-07-01T00:39:39.377Z,28.30
2023-07-01T00:42:07.761Z,19.40
2023-07-01T00:44:36.262Z,20.97
2023-07-01T00:47:04.390Z,18.83
2023-07-01T00:49:32.842Z,18.17
2023-07-01T00:52:02.064Z,25.30
2023-07-01T00:54:31.918Z,29.00
2023-07-01T00:57:02.527Z,22.30
2023-07-01T00:59:30.511Z,30.33
2023-07-01T01:02:01.837Z,20.87
2023-07-01T01:04:36.516Z,24.10
2023-07-01T01:07:09.711Z,23.77
2023-07-01T01:09:45.710Z,22.50
2023-07-01T01:12:15.229Z,27.83
2023-07-01T01:14:45.145Z,24.23
2023-07-01T01:17:16.290Z,23.80
2023-07-01T01:19:48.375Z,22.07
2023-07-01T01:22:22.204Z,16.73
2023-07-01T01:24:54.943Z,18.13
2023-07-01T01:27:26.733Z,22.33
2023-07-01T01:29:56.414Z,24.50
2023-07-01T01:32:24.476Z,17.63
2023-07-01T01:34:52.578Z,19.33
2023-07-01T01:37:26.550Z,18.17
2023-07-01T01:39:57.753Z,24.50
2023-07-01T01:42:31.601Z,23.77
2023-07-01T01:45:01.354Z,28.03
2023-07-01T01:47:32.482Z,20.00
2023-07-01T01:50:04.589Z,19.23
2023-07-01T01:52:34.136Z,26.40
2023-07-01T01:55:04.111Z,30.80
2023-07-01T01:57:32.865Z,19.03
2023-07-01T02:00:02.201Z,33.27
2023-07-01T02:02:30.372Z,20.33
2023-07-01T02:04:59.573Z,15.00
2023-07-01T02:07:27.873Z,25.03
2023-07-01T02:09:55.888Z,22.80
2023-07-01T02:12:24.362Z,23.90
2023-07-01T02:14:52.380Z,27.17
2023-07-01T02:17:21.818Z,23.43
2023-07-01T02:19:49.918Z,28.37
2023-07-01T02:22:17.918Z,33.17
2023-07-01T02:24:45.929Z,33.40
2023-07-01T02:27:14.065Z,23.37
2023-07-01T02:29:42.039Z,22.17
2023-07-01T02:32:11.097Z,19.87
2023-07-01T02:34:40.432Z,24.90
2023-07-01T02:37:08.467Z,32.03
2023-07-01T02:39:36.590Z,25.00
2023-07-01T02:42:05.130Z,26.37
2023-07-01T02:44:33.223Z,29.57
2023-07-01T02:47:01.436Z,29.83
2023-07-01T02:49:29.468Z,27.60
2023-07-01T02:51:58.904Z,31.07
2023-07-01T02:54:26.869Z,23.50
2023-07-01T02:56:54.928Z,34.40
2023-07-01T02:59:23.771Z,24.33
2023-07-01T03:01:51.881Z,31.30
2023-07-01T03:07:13.354Z,38.40
2023-07-01T03:09:41.342Z,27.60
2023-07-01T03:12:09.796Z,44.87
2023-07-01T03:14:38.937Z,27.10
2023-07-01T03:17:08.159Z,29.33
2023-07-01T03:19:36.539Z,27.10
2023-07-01T03:22:04.822Z,27.53
2023-07-01T03:24:35.491Z,27.27
2023-07-01T03:27:04.988Z,26.93
2023-07-01T03:29:33.010Z,26.27
2023-07-01T03:32:01.026Z,23.10
2023-07-01T03:34:29.040Z,26.53
2023-07-01T03:36:57.204Z,29.30
2023-07-01T03:39:25.190Z,30.57
2023-07-01T03:41:54.521Z,30.27
2023-07-01T03:44:22.517Z,25.80
2023-07-01T03:46:50.509Z,25.23
2023-07-01T03:49:18.616Z,26.20
2023-07-01T03:51:46.662Z,24.37
2023-07-01T03:54:14.756Z,36.37
2023-07-01T03:56:42.816Z,25.77
2023-07-01T03:59:12.362Z,17.73
2023-07-01T04:01:40.580Z,19.80
2023-07-01T04:04:08.803Z,22.53
2023-07-01T04:06:36.905Z,26.10
2023-07-01T04:09:05.092Z,26.77
2023-07-01T04:11:33.248Z,23.63
2023-07-01T04:14:01.472Z,33.00
2023-07-01T04:16:30.902Z,26.00
2023-07-01T04:18:59.073Z,30.20
2023-07-01T04:21:27.254Z,32.80
2023-07-01T04:23:55.456Z,28.80
2023-07-01T04:26:25.566Z,23.20
2023-07-01T04:28:53.803Z,28.57
2023-07-01T04:31:21.999Z,23.83
2023-07-01T04:33:51.630Z,25.13
2023-07-01T04:36:19.707Z,27.80
2023-07-01T04:38:47.721Z,27.50
2023-07-01T04:41:15.958Z,29.90
2023-07-01T04:43:44.142Z,27.67
2023-07-01T04:46:12.194Z,31.87
2023-07-01T04:48:40.181Z,23.93
2023-07-01T04:51:09.506Z,37.00
2023-07-01T04:53:40.127Z,24.20
2023-07-01T04:56:08.228Z,33.87
2023-07-01T04:58:36.314Z,32.80
2023-07-01T05:01:04.431Z,34.13
2023-07-01T05:03:32.697Z,27.50
2023-07-01T05:06:01.115Z,31.67
2023-07-01T05:08:30.470Z,29.40
2023-07-01T05:10:58.550Z,30.93
2023-07-01T05:13:26.557Z,37.47
2023-07-01T05:15:54.568Z,26.10
2023-07-01T05:18:22.598Z,31.83
2023-07-01T05:20:50.872Z,35.23
2023-07-01T05:23:19.211Z,36.80
2023-07-01T05:25:48.759Z,30.40
2023-07-01T05:28:16.927Z,33.20
2023-07-01T05:30:45.309Z,31.13
2023-07-01T05:33:13.691Z,36.90
2023-07-01T05:35:41.762Z,33.73
2023-07-01T05:38:10.366Z,35.10
2023-07-01T05:40:38.373Z,38.77
2023-07-01T05:43:07.873Z,35.87
2023-07-01T05:45:35.892Z,37.40
2023-07-01T05:48:04.032Z,33.10
2023-07-01T05:50:32.029Z,35.33
2023-07-01T05:53:00.059Z,34.47
2023-07-01T05:55:28.039Z,34.27
2023-07-01T05:57:56.054Z,33.60
2023-07-01T06:00:25.416Z,28.83
2023-07-01T06:02:53.413Z,32.80
2023-07-01T06:05:21.593Z,31.30
2023-07-01T06:07:50.545Z,30.77
2023-07-01T06:10:18.693Z,32.70
2023-07-01T06:12:48.407Z,28.83
2023-07-01T06:15:16.412Z,29.10
2023-07-01T06:17:45.914Z,27.80
2023-07-01T06:20:14.207Z,31.30
2023-07-01T06:22:42.256Z,30.07
2023-07-01T06:25:11.604Z,25.70
2023-07-01T06:27:39.844Z,32.23
2023-07-01T06:30:09.333Z,32.30
2023-07-01T06:32:37.426Z,32.53
2023-07-01T06:35:07.364Z,28.30
2023-07-01T06:37:35.454Z,33.40
2023-07-01T06:40:03.668Z,28.97
2023-07-01T06:42:31.712Z,28.13
2023-07-01T06:44:59.792Z,29.43
2023-07-01T06:47:31.565Z,30.87
2023-07-01T06:49:59.649Z,33.33
2023-07-01T06:52:29.011Z,29.03
2023-07-01T06:54:57.017Z,32.50
2023-07-01T06:57:25.299Z,29.47
2023-07-01T06:59:56.711Z,30.67
2023-07-01T07:02:28.624Z,30.67
2023-07-01T07:04:56.685Z,31.77
2023-07-01T07:07:24.765Z,33.60
2023-07-01T07:09:54.152Z,32.07
2023-07-01T07:12:22.160Z,35.60
2023-07-01T07:14:50.308Z,37.40
2023-07-01T07:17:18.352Z,36.07
2023-07-01T07:19:46.430Z,42.20
2023-07-01T07:22:14.534Z,38.40
2023-07-01T07:24:42.522Z,35.17
2023-07-01T07:27:12.010Z,37.20
2023-07-01T07:29:40.506Z,37.17
2023-07-01T07:32:09.968Z,35.93
2023-07-01T07:34:38.920Z,38.80
2023-07-01T07:37:08.606Z,30.83
2023-07-01T07:39:36.620Z,34.40
2023-07-01T07:42:04.988Z,36.87
2023-07-01T07:44:34.609Z,35.80
2023-07-01T07:47:02.931Z,32.13
2023-07-01T07:49:31.016Z,33.83
2023-07-01T07:52:02.297Z,33.23
2023-07-01T07:54:30.716Z,32.90
2023-07-01T07:57:00.448Z,32.10
2023-07-01T07:59:29.927Z,30.57
2023-07-01T08:02:01.027Z,29.30
2023-07-01T08:04:29.308Z,35.57
2023-07-01T08:06:57.548Z,31.63
2023-07-01T08:09:25.589Z,25.57
2023-07-01T08:11:53.652Z,34.03
2023-07-01T08:14:21.917Z,27.53
2023-07-01T08:16:50.108Z,27.70
2023-07-01T08:19:19.484Z,33.47
2023-07-01T08:21:47.603Z,26.83
2023-07-01T08:24:16.617Z,29.53
2023-07-01T08:26:46.582Z,26.50
2023-07-01T08:29:14.640Z,27.10
2023-07-01T08:31:42.716Z,29.00
2023-07-01T08:34:10.907Z,28.10
2023-07-01T08:36:40.460Z,25.77
2023-07-01T08:39:08.971Z,24.77
2023-07-01T08:41:44.789Z,21.73
2023-07-01T08:44:14.510Z,28.47
2023-07-01T08:46:44.459Z,24.50
2023-07-01T08:49:14.981Z,24.13
2023-07-01T08:51:46.686Z,27.73
2023-07-01T08:54:15.671Z,24.90
2023-07-01T08:56:43.876Z,22.40
2023-07-01T08:59:15.800Z,21.10
2023-07-01T09:01:44.842Z,22.20
2023-07-01T09:04:13.652Z,21.87
2023-07-01T09:06:41.781Z,18.53
2023-07-01T09:09:11.389Z,20.07
2023-07-01T09:11:39.582Z,18.20
2023-07-01T09:14:09.163Z,17.40
2023-07-01T09:16:39.213Z,16.10
2023-07-01T09:19:08.834Z,16.90
2023-07-01T09:21:37.271Z,18.93
2023-07-01T09:24:06.302Z,16.20
2023-07-01T09:26:35.977Z,18.73
2023-07-01T09:29:10.836Z,16.30
2023-07-01T09:31:49.300Z,15.40
2023-07-01T09:34:19.151Z,19.43
2023-07-01T09:36:47.355Z,19.57
2023-07-01T09:39:15.455Z,17.67
2023-07-01T09:41:44.954Z,14.57
2023-07-01T09:44:19.951Z,16.23
2023-07-01T09:46:50.288Z,19.40
2023-07-01T09:49:19.551Z,23.03
2023-07-01T09:51:49.676Z,14.40
2023-07-01T09:54:28.828Z,15.83
2023-07-01T09:56:59.563Z,15.63
2023-07-01T09:59:28.942Z,17.27
2023-07-01T10:01:58.938Z,21.50
2023-07-01T10:04:30.066Z,16.90
2023-07-01T10:06:58.927Z,15.30
2023-07-01T10:09:29.222Z,14.47
2023-07-01T10:12:00.208Z,14.90
2023-07-01T10:14:31.252Z,15.80
2023-07-01T10:17:00.123Z,17.13
2023-07-01T10:19:29.954Z,17.40
2023-07-01T10:22:26.643Z,17.37
2023-07-01T10:25:05.085Z,13.83
2023-07-01T10:31:15.921Z,13.40
2023-07-01T10:34:05.164Z,13.73
2023-07-01T10:36:37.398Z,12.73
2023-07-01T10:39:33.020Z,13.55
2023-07-01T10:42:01.093Z,15.70
2023-07-01T10:44:30.500Z,14.40
2023-07-01T10:47:17.951Z,15.43
2023-07-01T10:50:06.923Z,11.73
2023-07-01T10:52:55.523Z,11.00
2023-07-01T10:55:36.597Z,15.50
2023-07-01T10:58:23.026Z,23.83
2023-07-01T11:00:53.721Z,12.87
2023-07-01T11:04:02.707Z,12.47
2023-07-01T11:06:45.481Z,12.23
2023-07-01T11:09:14.424Z,15.87
2023-07-01T11:11:43.264Z,15.03
2023-07-01T11:14:12.906Z,14.13
2023-07-01T11:16:42.288Z,12.30
2023-07-01T11:19:16.440Z,11.73
2023-07-01T11:21:45.642Z,15.23
2023-07-01T11:24:15.205Z,12.50
2023-07-01T11:26:44.319Z,10.93
2023-07-01T11:29:17.248Z,11.90
2023-07-01T11:31:47.079Z,10.73
2023-07-01T11:34:20.092Z,15.20
2023-07-01T11:36:49.758Z,10.17
2023-07-01T11:39:19.294Z,12.57
2023-07-01T11:41:52.232Z,11.70
2023-07-01T11:44:23.066Z,8.97
2023-07-01T11:46:53.369Z,11.10
2023-07-01T11:49:25.726Z,9.40
2023-07-01T11:51:55.771Z,11.13
2023-07-01T11:54:25.685Z,9.50
2023-07-01T11:57:10.011Z,9.67
2023-07-01T11:59:39.708Z,9.00
2023-07-01T12:02:11.126Z,9.13
2023-07-01T12:04:39.444Z,10.10
2023-07-01T12:07:09.414Z,10.40
2023-07-01T12:09:38.952Z,13.23
2023-07-01T12:12:07.924Z,9.73
2023-07-01T12:14:36.447Z,11.47
2023-07-01T12:17:04.805Z,12.07
2023-07-01T12:19:34.220Z,10.23
2023-07-01T12:22:03.204Z,9.37
2023-07-01T12:24:33.026Z,8.77
2023-07-01T12:27:03.753Z,8.70
2023-07-01T12:29:32.104Z,8.73
2023-07-01T12:32:00.756Z,13.50
2023-07-01T12:34:30.679Z,10.17
2023-07-01T12:37:00.872Z,11.80
2023-07-01T12:39:28.954Z,8.50
2023-07-01T12:41:59.775Z,11.13
2023-07-01T12:44:28.191Z,9.27
2023-07-01T12:46:56.383Z,12.33
2023-07-01T12:49:24.539Z,9.37
2023-07-01T12:51:53.064Z,7.00
2023-07-01T12:54:24.559Z,8.57
2023-07-01T12:56:53.696Z,7.30
2023-07-01T12:59:22.800Z,7.70
2023-07-01T13:01:50.884Z,12.47
2023-07-01T13:04:20.725Z,7.87
2023-07-01T13:06:50.173Z,6.30
2023-07-01T13:09:24.851Z,8.67
2023-07-01T13:11:54.483Z,12.33
2023-07-01T13:14:24.734Z,9.93
2023-07-01T13:16:52.769Z,9.13
2023-07-01T13:19:22.159Z,7.60
2023-07-01T13:21:50.657Z,8.00
2023-07-01T13:24:18.883Z,10.53
2023-07-01T13:26:48.715Z,9.37
2023-07-01T13:29:19.830Z,9.70
2023-07-01T13:31:49.446Z,17.47
2023-07-01T13:34:19.776Z,8.53
2023-07-01T13:36:52.120Z,7.30
2023-07-01T13:39:27.595Z,9.27
2023-07-01T13:41:55.649Z,7.90
2023-07-01T13:44:25.073Z,7.50
2023-07-01T13:46:55.082Z,8.00
2023-07-01T13:49:25.160Z,8.47
2023-07-01T13:51:54.405Z,8.37
2023-07-01T13:54:24.587Z,9.37
2023-07-01T13:56:53.076Z,10.13
2023-07-01T13:59:22.421Z,11.47
2023-07-01T14:01:59.547Z,8.50
2023-07-01T14:04:28.767Z,8.90
2023-07-01T14:06:56.943Z,9.80
2023-07-01T14:09:28.341Z,9.33
2023-07-01T14:11:56.931Z,8.97
2023-07-01T14:14:28.365Z,8.00
2023-07-01T14:16:58.806Z,7.90
2023-07-01T14:19:27.743Z,7.77
2023-07-01T14:21:57.943Z,7.63
2023-07-01T14:24:29.474Z,8.43
2023-07-01T14:27:02.767Z,8.00
2023-07-01T14:29:30.950Z,11.50
2023-07-01T14:32:08.538Z,8.57
2023-07-01T14:34:41.172Z,9.50
2023-07-01T14:37:09.740Z,9.07
2023-07-01T14:39:45.779Z,9.33
2023-07-01T14:42:15.808Z,7.60
2023-07-01T14:44:44.346Z,10.07
2023-07-01T14:47:13.923Z,8.50
2023-07-01T14:49:42.016Z,8.67
2023-07-01T14:52:10.575Z,9.90
2023-07-01T14:54:38.978Z,9.37
2023-07-01T14:57:07.330Z,9.17
2023-07-01T14:59:35.736Z,8.07
2023-07-01T15:02:04.198Z,9.60
2023-07-01T15:04:33.666Z,6.60
2023-07-01T15:07:01.794Z,11.00
2023-07-01T15:09:29.811Z,10.00
2023-07-01T15:11:57.826Z,8.67
2023-07-01T15:14:25.915Z,9.50
2023-07-01T15:16:53.915Z,9.17
2023-07-01T15:19:21.927Z,9.03
2023-07-01T15:21:51.300Z,8.43
2023-07-01T15:24:19.340Z,12.00
2023-07-01T15:26:50.834Z,7.00
2023-07-01T15:29:19.127Z,6.20
2023-07-01T15:31:47.254Z,8.83
2023-07-01T15:34:15.412Z,8.60
2023-07-01T15:36:43.520Z,8.20
2023-07-01T15:39:12.884Z,7.27
2023-07-01T15:41:48.005Z,8.40
2023-07-01T15:44:16.945Z,6.70
2023-07-01T15:46:45.131Z,7.90
2023-07-01T15:49:13.540Z,9.47
2023-07-01T15:51:44.810Z,7.60
2023-07-01T15:54:14.192Z,7.40
2023-07-01T15:56:42.269Z,6.90
2023-07-01T15:59:10.727Z,8.80
2023-07-01T16:01:38.877Z,21.13
2023-07-01T16:06:59.646Z,6.67
2023-07-01T16:09:57.332Z,7.60
2023-07-01T16:12:34.299Z,21.23
2023-07-01T16:15:06.025Z,12.30
2023-07-01T16:17:34.860Z,12.03
2023-07-01T16:20:04.229Z,7.07
2023-07-01T16:22:32.822Z,7.43
2023-07-01T16:25:02.330Z,7.33
2023-07-01T16:27:30.362Z,7.90
2023-07-01T16:30:02.077Z,9.50
2023-07-01T16:32:32.209Z,5.80
2023-07-01T16:35:02.927Z,5.90
2023-07-01T16:37:30.940Z,7.80
2023-07-01T16:40:01.267Z,9.17
2023-07-01T16:42:37.856Z,6.07
2023-07-01T16:45:13.226Z,11.30
2023-07-01T16:47:41.355Z,10.00
2023-07-01T16:50:17.225Z,8.70
2023-07-01T16:52:48.839Z,8.50
2023-07-01T16:55:39.253Z,7.93
2023-07-01T16:58:21.094Z,10.73
2023-07-01T17:00:49.285Z,8.43
2023-07-01T17:03:20.092Z,6.17
2023-07-01T17:05:48.263Z,6.87
2023-07-01T17:08:22.623Z,5.77
2023-07-01T17:10:52.297Z,7.10
2023-07-01T17:13:30.281Z,6.97
2023-07-01T17:15:59.244Z,7.63
2023-07-01T17:18:27.567Z,6.87
2023-07-01T17:23:50.460Z,10.33
2023-07-01T17:26:20.816Z,5.97
2023-07-01T17:28:49.060Z,8.50
2023-07-01T17:31:17.458Z,7.80
2023-07-01T17:33:45.557Z,4.60
2023-07-01T17:36:13.661Z,7.50
2023-07-01T17:38:41.645Z,5.03
2023-07-01T17:41:13.265Z,5.33
2023-07-01T17:43:42.656Z,10.63
2023-07-01T17:46:11.030Z,6.83
2023-07-01T17:48:39.426Z,5.97
2023-07-01T17:51:07.444Z,7.13
2023-07-01T17:53:35.457Z,9.03
2023-07-01T17:56:03.761Z,8.30
2023-07-01T17:58:31.750Z,7.03
2023-07-01T18:01:01.232Z,7.10
2023-07-01T18:03:29.456Z,6.10
2023-07-01T18:05:57.580Z,5.60
2023-07-01T18:08:25.835Z,6.80
2023-07-01T18:10:53.984Z,5.07
2023-07-01T18:13:22.208Z,5.80
2023-07-01T18:15:50.819Z,8.87
2023-07-01T18:18:20.551Z,5.83
2023-07-01T18:20:55.402Z,7.80
2023-07-01T18:23:23.930Z,5.90
2023-07-01T18:25:52.096Z,7.40
2023-07-01T18:28:20.094Z,6.90
2023-07-01T18:30:48.111Z,6.03
2023-07-01T18:33:16.174Z,7.67
2023-07-01T18:35:46.010Z,8.20
2023-07-01T18:38:14.390Z,7.20
2023-07-01T18:40:42.381Z,7.50
2023-07-01T18:43:10.550Z,6.53
2023-07-01T18:45:38.627Z,8.37
2023-07-01T18:48:07.255Z,8.60
2023-07-01T18:50:35.342Z,9.23
2023-07-01T18:53:04.838Z,8.93
2023-07-01T18:55:32.930Z,10.50
2023-07-01T18:58:00.935Z,5.70
2023-07-01T19:00:29.081Z,8.30
2023-07-01T19:03:00.978Z,5.40
2023-07-01T19:05:29.020Z,6.13
2023-07-01T19:07:57.102Z,8.03
2023-07-01T19:10:26.432Z,8.30
2023-07-01T19:12:54.373Z,10.77
2023-07-01T19:18:24.311Z,6.90
2023-07-01T19:20:55.964Z,6.37
2023-07-01T19:23:24.155Z,8.80
2023-07-01T19:25:53.622Z,6.87
2023-07-01T19:28:23.373Z,16.87
2023-07-01T19:30:51.411Z,8.03
2023-07-01T19:33:20.434Z,13.07
2023-07-01T19:35:49.996Z,11.23
2023-07-01T19:38:18.354Z,6.53
2023-07-01T19:40:46.365Z,9.00
2023-07-01T19:43:16.583Z,6.97
2023-07-01T19:45:45.499Z,8.60
2023-07-01T19:48:13.789Z,7.00
2023-07-01T19:50:42.444Z,8.53
2023-07-01T19:53:10.601Z,7.53
2023-07-01T19:55:38.702Z,16.67
2023-07-01T19:58:07.056Z,7.33
2023-07-01T20:00:39.058Z,8.70
2023-07-01T20:03:07.485Z,9.87
2023-07-01T20:05:42.093Z,7.77
2023-07-01T20:08:10.180Z,8.93
2023-07-01T20:10:38.347Z,7.70
2023-07-01T20:13:06.778Z,9.90
2023-07-01T20:15:36.627Z,7.63
2023-07-01T20:18:04.840Z,8.83
2023-07-01T20:20:33.482Z,6.97
2023-07-01T20:23:01.764Z,13.43
2023-07-01T20:25:29.847Z,9.77
2023-07-01T20:27:57.866Z,9.93
2023-07-01T20:30:27.776Z,11.57
2023-07-01T20:32:57.273Z,12.73
2023-07-01T20:35:25.887Z,10.83
2023-07-01T20:37:54.144Z,8.97
2023-07-01T20:40:24.524Z,9.23
2023-07-01T20:42:52.549Z,9.13
2023-07-01T20:45:21.879Z,9.50
2023-07-01T20:47:50.054Z,11.10
2023-07-01T20:50:19.574Z,7.77
2023-07-01T20:52:47.738Z,8.93
2023-07-01T20:55:15.850Z,8.10
2023-07-01T20:57:43.836Z,7.93
2023-07-01T21:00:16.979Z,8.67
2023-07-01T21:02:45.049Z,12.60
2023-07-01T21:05:13.138Z,10.47
2023-07-01T21:07:42.597Z,11.53
2023-07-01T21:10:12.260Z,8.67
2023-07-01T21:12:40.441Z,9.77
2023-07-01T21:15:09.218Z,10.27
2023-07-01T21:17:37.220Z,12.17
2023-07-01T21:20:06.072Z,12.40
2023-07-01T21:22:35.261Z,8.70
2023-07-01T21:25:05.176Z,12.43
2023-07-01T21:28:04.932Z,8.93
2023-07-01T21:30:40.086Z,10.33
2023-07-01T21:33:12.930Z,15.73
2023-07-01T21:35:45.705Z,15.23
2023-07-01T21:38:14.725Z,10.80
2023-07-01T21:40:46.876Z,11.37
2023-07-01T21:43:20.318Z,16.40
2023-07-01T21:45:52.158Z,11.13
2023-07-01T21:48:24.811Z,11.70
2023-07-01T21:50:57.457Z,10.67
2023-07-01T21:53:29.607Z,12.90
2023-07-01T21:56:00.730Z,11.83
2023-07-01T21:58:33.985Z,10.10
2023-07-01T22:01:04.597Z,10.40
2023-07-01T22:03:33.497Z,10.33
2023-07-01T22:06:02.407Z,9.77
2023-07-01T22:08:30.454Z,10.23
2023-07-01T22:11:00.922Z,10.37
2023-07-01T22:13:30.024Z,11.70
2023-07-01T22:15:58.176Z,8.67
2023-07-01T22:18:26.345Z,13.40
2023-07-01T22:20:54.646Z,11.47
2023-07-01T22:23:22.629Z,10.70
2023-07-01T22:25:50.784Z,8.77
2023-07-01T22:28:20.385Z,11.10
2023-07-01T22:30:49.295Z,10.90
2023-07-01T22:33:17.897Z,15.40
2023-07-01T22:35:45.969Z,12.23
2023-07-01T22:38:14.027Z,11.50
2023-07-01T22:40:42.093Z,10.43
2023-07-01T22:43:10.289Z,11.53
2023-07-01T22:45:39.765Z,10.37
2023-07-01T22:48:07.828Z,15.00
2023-07-01T22:50:35.994Z,9.60
2023-07-01T22:53:04.702Z,12.17
2023-07-01T22:55:32.834Z,11.23
2023-07-01T22:58:00.825Z,9.13
2023-07-01T23:00:28.896Z,14.53
2023-07-01T23:02:58.297Z,16.70
2023-07-01T23:05:26.552Z,11.07
2023-07-01T23:07:54.684Z,9.10
2023-07-01T23:10:25.964Z,9.17
2023-07-01T23:12:54.977Z,8.77
2023-07-01T23:15:26.980Z,13.63
2023-07-01T23:17:55.219Z,13.03
2023-07-01T23:20:25.352Z,8.93
2023-07-01T23:22:53.449Z,8.97
2023-07-01T23:25:21.728Z,9.27
2023-07-01T23:27:49.733Z,13.23
2023-07-01T23:30:18.072Z,10.63
2023-07-01T23:32:52.877Z,8.27
2023-07-01T23:35:22.859Z,9.83
2023-07-01T23:37:52.623Z,9.03
2023-07-01T23:40:20.793Z,10.37
2023-07-01T23:42:48.836Z,7.93
2023-07-01T23:45:17.269Z,13.47
2023-07-01T23:47:46.925Z,12.10
2023-07-01T23:50:16.274Z,11.90
2023-07-01T23:52:44.497Z,11.03
2023-07-01T23:55:13.950Z,9.73
2023-07-01T23:57:41.996Z,9.77
